• Join FlightAware (Why Join?)
  • Login
  • US Flag 
Gobble Gobble! 
01:58PM EST


 

Airport Tracker/Info


-or-


 

Live Flight TrackerFlight Track Log ✈ SWA4703 ✈ 27-Dec-2012 ✈ KBWI - KALB

Flight Track Log - Related Links

Times and Time Zones

All times are in EST time to prevent confusion due to time zone crossing. See the SWA4703 flight status page for this flight to view local times or setup timezone preferences in your user account.

Time Position Orientation Groundspeed Altitude Reporting Facility
EST Latitude Longitude Course Direction KTS MPH feet Rate Location/Type
10:44PM 39.1833 -76.7333 127° Southeast 176 203 3,000  Level Potomac TRACON
10:46PM 39.1236 -76.6297 127° Southeast 133 153 9,200 2,940 Climbing Washington Center
10:47PM 39.1328 -76.5067 84° East 247 284 12,000 3,120 Climbing Washington Center
10:48PM 39.1422 -76.3731 85° East 309 356 15,400 3,180 Climbing Washington Center
10:49PM 39.1514 -76.2258 85° East 367 422 18,400 2,760 Climbing Washington Center
10:50PM 39.1686 -76.0894 81° East 413 475 21,000 2,400 Climbing Washington Center
10:51PM 39.1881 -75.9289 81° East 435 501 23,300 2,460 Climbing Washington Center
10:52PM 39.2528 -75.8061 56° Northeast 425 489 25,900 2,640 Climbing Washington Center
10:53PM 39.3364 -75.6989 45° Northeast 409 471 28,600 1,500 Climbing Washington Center
10:54PM 39.4197 -75.5889 46° Northeast 415 478 29,000 120 Climbing Washington Center
10:56PM 39.5947 -75.3617 45° Northeast 448 516 29,000  Level New York Center
10:57PM 39.6847 -75.2408 46° Northeast 462 532 29,000  Level New York Center
10:58PM 39.7767 -75.1250 44° Northeast 462 532 29,000  Level New York Center
10:59PM 39.8683 -75.0144 43° Northeast 451 519 29,000  Level New York Center
11:00PM 39.9708 -74.8906 43° Northeast 451 519 29,000  Level New York Center
11:01PM 40.0622 -74.7767 44° Northeast 442 509 29,000  Level New York Center
11:02PM 40.1514 -74.6678 43° Northeast 447 514 29,000  Level New York Center
11:03PM 40.2339 -74.5636 44° Northeast 447 514 29,000  Level New York Center
11:04PM 40.3339 -74.4386 44° Northeast 447 514 29,000  Level New York Center
11:05PM 40.4206 -74.3258 45° Northeast 447 514 29,000 -360 Level New York Center
11:06PM 40.5189 -74.2408 33° Northeast 440 506 28,300 -900 Descending New York Center
11:08PM 40.6817 -74.2081 North 379 436 26,700 -960 Descending Boston Center
11:09PM 40.7736 -74.1914 North 366 421 26,000 -360 Descending Boston Center
11:10PM 40.8678 -74.1692 10° North 361 415 26,000  Level Boston Center
11:11PM 40.9681 -74.1497 North 356 410 26,000  Level Boston Center
11:12PM 41.0603 -74.1275 10° North 349 402 26,000  Level Boston Center
11:13PM 41.1564 -74.1081 North 344 396 26,000  Level Boston Center
11:14PM 41.2506 -74.0883 North 344 396 26,000  Level Boston Center
11:15PM 41.3444 -74.0658 10° North 344 396 26,000 -780 Level Boston Center
11:16PM 41.4428 -74.0461 North 344 396 24,500 -1,740 Descending Boston Center
11:17PM 41.5369 -74.0236 10° North 355 409 22,600 -1,860 Descending Boston Center
11:18PM 41.6372 -74.0011 10° North 349 402 20,800 -1,860 Descending Boston Center
11:19PM 41.7231 -73.9839 North 329 379 18,900 -1,800 Descending Boston Center
11:20PM 41.7983 -73.9661 10° North 301 346 17,300 -1,740 Descending Boston Center
11:21PM 41.8922 -73.9461 North 294 338 15,500 -1,800 Descending Boston Center
11:21PM 41.9403 -73.9389 North 301 346 14,400 -1,620 Descending Boston Center
11:22PM 41.9633 -73.9311 14° North 294 338 13,900 -1,620 Descending Boston Center
11:22PM 42.0219 -73.9183 North 295 339 12,800 -1,740 Descending Boston Center
11:23PM 42.0511 -73.9136 North 288 331 12,200 -1,680 Descending Boston Center
11:23PM 42.0931 -73.9033 10° North 282 325 11,300 -1,200 Descending Boston Center
11:24PM 42.1286 -73.8931 12° North 288 331 11,000 -300 Descending Boston Center
11:24PM 42.1681 -73.8856 North 272 313 11,000 -720 Level Boston Center
11:25PM 42.1933 -73.8806 North 266 306 10,300 -1,800 Descending Boston Center
11:25PM 42.2372 -73.8703 10° North 249 287 9,200 -1,920 Descending Boston Center
11:26PM 42.2706 -73.8625 10° North 253 291 8,400 -1,800 Descending Boston Center
11:26PM 42.3103 -73.8550 North 257 296 7,400 -1,440 Descending Boston Center
11:27PM 42.3814 -73.8369 11° North 262 302 6,200 -1,200 Descending Boston Center
11:28PM 42.4483 -73.8217 10° North 242 278 5,000 -1,080 Descending Boston Center
11:29PM 42.5089 -73.8061 11° North 225 259 4,100 -840 Descending Boston Center
11:30PM 42.5653 -73.7989 North 200 230 3,400 -660 Descending Boston Center
11:31PM 42.6172 -73.8000 359° North 174 200 2,800 -780 Descending Boston Center
11:32PM 42.6631 -73.8039 356° North 153 176 1,900 -900 Descending Boston Center
11:33PM 42.6986 -73.8044 359° North 118 136 1,100 -780 Descending Boston Center
11:34PM 42.7339 -73.8081 356° North 126 145 400 -720 Descending Boston Center